createdAt,value
2023-10-06T00:01:12.298Z,5.40
2023-10-06T00:03:42.198Z,4.40
2023-10-06T00:06:13.748Z,4.50
2023-10-06T00:08:42.048Z,4.22
2023-10-06T00:11:13.207Z,4.63
2023-10-06T00:13:53.278Z,4.90
2023-10-06T00:16:21.567Z,4.60
2023-10-06T00:18:51.028Z,4.38
2023-10-06T00:21:22.747Z,4.47
2023-10-06T00:23:50.724Z,4.20
2023-10-06T00:26:20.660Z,5.00
2023-10-06T00:28:48.681Z,4.63
2023-10-06T00:31:16.666Z,4.75
2023-10-06T00:33:46.166Z,5.30
2023-10-06T00:36:15.594Z,4.40
2023-10-06T00:38:51.743Z,4.80
2023-10-06T00:41:21.972Z,4.60
2023-10-06T00:43:51.700Z,4.50
2023-10-06T00:46:20.789Z,4.38
2023-10-06T00:48:54.263Z,4.25
2023-10-06T00:51:23.595Z,4.55
2023-10-06T00:53:52.850Z,4.28
2023-10-06T00:56:24.995Z,4.72
2023-10-06T00:58:53.456Z,4.90
2023-10-06T01:18:25.316Z,4.00
2023-10-06T01:38:04.644Z,5.50
2023-10-06T01:43:32.707Z,4.68
2023-10-06T01:46:10.438Z,5.07
2023-10-06T01:57:27.948Z,6.03
2023-10-06T01:59:57.144Z,5.55
2023-10-06T02:02:25.956Z,5.60
2023-10-06T02:04:58.348Z,6.50
2023-10-06T02:07:26.323Z,5.78
2023-10-06T02:09:54.131Z,6.85
2023-10-06T02:12:22.211Z,5.95
2023-10-06T02:14:50.117Z,6.88
2023-10-06T02:17:19.332Z,6.78
2023-10-06T02:19:47.338Z,6.70
2023-10-06T02:22:15.213Z,6.90
2023-10-06T02:24:44.189Z,7.15
2023-10-06T02:27:12.695Z,7.78
2023-10-06T02:29:40.578Z,7.28
2023-10-06T02:32:09.480Z,7.45
2023-10-06T02:34:40.731Z,7.70
2023-10-06T02:37:09.705Z,7.45
2023-10-06T02:39:40.017Z,7.10
2023-10-06T02:42:10.959Z,7.28
2023-10-06T02:44:42.428Z,7.97
2023-10-06T02:47:12.280Z,7.72
2023-10-06T02:49:49.325Z,7.35
2023-10-06T02:52:21.521Z,7.30
2023-10-06T02:54:58.176Z,7.63
2023-10-06T02:57:26.813Z,7.30
2023-10-06T02:59:58.527Z,7.00
2023-10-06T03:02:27.937Z,7.00
2023-10-06T03:05:11.810Z,7.13
2023-10-06T03:07:39.945Z,6.95
2023-10-06T03:10:10.125Z,6.90
2023-10-06T03:12:40.789Z,7.03
2023-10-06T03:15:28.857Z,6.63
2023-10-06T03:17:57.738Z,6.13
2023-10-06T03:20:30.872Z,7.32
2023-10-06T03:22:59.053Z,6.32
2023-10-06T03:25:29.439Z,5.72
2023-10-06T03:27:59.189Z,5.82
2023-10-06T03:30:30.061Z,5.85
2023-10-06T03:32:59.608Z,6.55
2023-10-06T03:35:38.024Z,6.65
2023-10-06T03:38:28.740Z,5.65
2023-10-06T03:41:10.759Z,5.45
2023-10-06T03:43:42.700Z,6.03
2023-10-06T03:46:15.489Z,6.72
2023-10-06T03:48:43.663Z,5.22
2023-10-06T03:51:12.909Z,5.80
2023-10-06T03:53:41.189Z,5.50
2023-10-06T03:56:09.880Z,5.85
2023-10-06T03:58:37.825Z,5.05
2023-10-06T04:01:10.876Z,5.63
2023-10-06T04:03:39.465Z,5.10
2023-10-06T04:06:14.067Z,5.07
2023-10-06T04:08:46.231Z,5.50
2023-10-06T04:11:16.913Z,5.57
2023-10-06T04:13:45.609Z,5.20
2023-10-06T04:16:15.289Z,4.88
2023-10-06T04:18:49.235Z,5.68
2023-10-06T04:21:18.391Z,5.32
2023-10-06T04:23:47.574Z,5.55
2023-10-06T04:26:16.936Z,5.43
2023-10-06T04:28:48.649Z,4.55
2023-10-06T04:31:17.602Z,5.88
2023-10-06T04:33:45.945Z,5.10
2023-10-06T04:36:21.791Z,4.90
2023-10-06T04:38:52.307Z,5.43
2023-10-06T04:41:22.041Z,5.40
2023-10-06T04:43:52.236Z,4.75
2023-10-06T04:46:20.177Z,5.10
2023-10-06T04:48:49.743Z,5.55
2023-10-06T04:51:17.746Z,5.10
2023-10-06T04:53:47.772Z,5.47
2023-10-06T04:56:18.330Z,4.68
2023-10-06T04:58:46.669Z,5.03
2023-10-06T05:01:14.980Z,4.85
2023-10-06T05:03:45.398Z,5.07
2023-10-06T05:06:16.907Z,5.10
2023-10-06T05:08:48.743Z,5.18
2023-10-06T05:11:19.713Z,4.57
2023-10-06T05:13:49.238Z,4.53
2023-10-06T05:16:17.385Z,5.00
2023-10-06T05:18:46.315Z,4.80
2023-10-06T05:21:14.554Z,5.30
2023-10-06T05:23:42.564Z,4.70
2023-10-06T05:26:11.859Z,4.97
2023-10-06T05:28:41.482Z,4.82
2023-10-06T05:31:09.437Z,4.85
2023-10-06T05:33:37.520Z,4.72
2023-10-06T05:36:12.069Z,4.75
2023-10-06T05:38:40.594Z,4.55
2023-10-06T05:41:13.548Z,5.05
2023-10-06T05:43:44.670Z,4.65
2023-10-06T05:46:13.096Z,5.60
2023-10-06T05:48:43.421Z,4.45
2023-10-06T05:51:12.551Z,4.65
2023-10-06T05:53:42.384Z,4.65
2023-10-06T05:56:10.839Z,4.25
2023-10-06T05:58:39.677Z,4.70
2023-10-06T06:01:12.612Z,4.18
2023-10-06T06:03:47.037Z,4.20
2023-10-06T06:06:18.110Z,3.85
2023-10-06T06:08:48.968Z,3.92
2023-10-06T06:11:18.169Z,4.40
2023-10-06T06:13:52.610Z,4.38
2023-10-06T06:16:25.974Z,3.97
2023-10-06T06:18:53.924Z,3.80
2023-10-06T06:21:26.089Z,3.70
2023-10-06T06:23:58.977Z,3.75
2023-10-06T06:26:27.335Z,4.00
2023-10-06T06:28:55.439Z,4.00
2023-10-06T06:31:24.767Z,3.67
2023-10-06T06:33:58.321Z,4.10
2023-10-06T06:36:27.008Z,3.83
2023-10-06T06:38:55.464Z,4.00
2023-10-06T06:41:23.842Z,3.50
2023-10-06T06:43:59.516Z,3.75
2023-10-06T06:46:31.272Z,4.10
2023-10-06T06:49:04.446Z,3.45
2023-10-06T06:51:34.301Z,4.07
2023-10-06T06:54:02.573Z,3.90
2023-10-06T06:56:32.577Z,3.63
2023-10-06T06:59:02.040Z,3.90
2023-10-06T07:01:34.555Z,4.03
2023-10-06T07:04:03.331Z,3.70
2023-10-06T07:06:32.736Z,3.97
2023-10-06T07:09:03.450Z,3.47
2023-10-06T07:11:31.632Z,3.42
2023-10-06T07:14:01.191Z,3.53
2023-10-06T07:16:29.657Z,4.15
2023-10-06T07:19:00.861Z,4.10
2023-10-06T07:21:29.825Z,3.85
2023-10-06T07:23:58.155Z,3.63
2023-10-06T07:26:26.823Z,3.63
2023-10-06T07:28:56.672Z,3.22
2023-10-06T07:31:26.259Z,4.07
2023-10-06T07:33:55.688Z,3.53
2023-10-06T07:36:25.253Z,3.50
2023-10-06T07:38:54.244Z,3.80
2023-10-06T07:41:24.776Z,3.72
2023-10-06T07:43:53.690Z,2.95
2023-10-06T07:46:22.307Z,3.42
2023-10-06T07:48:51.996Z,3.28
2023-10-06T07:51:21.071Z,3.60
2023-10-06T07:53:56.413Z,3.90
2023-10-06T07:56:24.437Z,3.75
2023-10-06T07:58:54.187Z,3.83
2023-10-06T08:01:22.917Z,3.60
2023-10-06T08:03:51.452Z,4.00
2023-10-06T08:06:19.504Z,3.20
2023-10-06T08:08:49.361Z,3.33
2023-10-06T08:11:22.214Z,3.38
2023-10-06T08:13:51.809Z,3.83
2023-10-06T08:16:20.378Z,3.42
2023-10-06T08:18:48.734Z,3.55
2023-10-06T08:21:16.628Z,3.13
2023-10-06T08:23:44.548Z,3.67
2023-10-06T08:26:15.303Z,3.67
2023-10-06T08:28:46.554Z,3.30
2023-10-06T08:31:19.181Z,3.63
2023-10-06T08:33:48.248Z,3.65
2023-10-06T08:36:16.269Z,3.17
2023-10-06T08:38:47.577Z,3.42
2023-10-06T08:41:17.228Z,3.92
2023-10-06T08:43:48.989Z,3.65
2023-10-06T08:46:17.207Z,3.83
2023-10-06T08:48:46.384Z,3.42
2023-10-06T08:51:16.230Z,3.63
2023-10-06T08:53:46.884Z,4.00
2023-10-06T08:56:16.523Z,3.70
2023-10-06T08:58:46.729Z,3.97
2023-10-06T09:01:15.524Z,3.65
2023-10-06T09:03:43.574Z,3.83
2023-10-06T09:06:12.802Z,3.95
2023-10-06T09:08:42.490Z,3.88
2023-10-06T09:11:11.545Z,3.70
2023-10-06T09:13:40.317Z,3.95
2023-10-06T09:16:09.996Z,3.65
2023-10-06T09:18:40.759Z,3.80
2023-10-06T09:21:14.492Z,3.72
2023-10-06T09:23:42.593Z,3.47
2023-10-06T09:26:12.824Z,4.18
2023-10-06T09:28:52.229Z,4.22
2023-10-06T09:31:36.191Z,3.80
2023-10-06T09:34:07.092Z,4.00
2023-10-06T09:36:44.222Z,4.13
2023-10-06T09:39:18.981Z,3.92
2023-10-06T09:41:49.292Z,3.80
2023-10-06T09:44:24.101Z,4.07
2023-10-06T09:46:55.409Z,4.00
2023-10-06T09:49:24.359Z,3.75
2023-10-06T09:51:59.853Z,3.92
2023-10-06T09:54:30.854Z,3.88
2023-10-06T09:57:02.427Z,3.90
2023-10-06T09:59:37.078Z,4.35
2023-10-06T10:02:15.982Z,3.97
2023-10-06T10:04:46.955Z,4.43
2023-10-06T10:07:20.891Z,4.88
2023-10-06T10:09:51.665Z,4.13
2023-10-06T10:12:30.511Z,4.40
2023-10-06T10:15:13.332Z,4.20
2023-10-06T10:17:52.422Z,4.47
2023-10-06T10:20:27.411Z,4.05
2023-10-06T10:22:58.696Z,3.75
2023-10-06T10:25:27.263Z,4.70
2023-10-06T10:28:14.364Z,4.07
2023-10-06T10:30:55.703Z,4.88
2023-10-06T10:33:30.467Z,4.13
2023-10-06T10:36:23.965Z,4.07
2023-10-06T10:39:10.635Z,3.92
2023-10-06T10:41:39.414Z,4.18
2023-10-06T10:44:24.682Z,3.85
2023-10-06T10:46:57.598Z,3.42
2023-10-06T10:49:33.942Z,3.80
2023-10-06T10:52:06.190Z,3.90
2023-10-06T10:54:36.142Z,3.95
2023-10-06T10:57:10.654Z,3.63
2023-10-06T11:00:14.504Z,4.28
2023-10-06T11:02:43.874Z,3.90
2023-10-06T11:05:13.587Z,3.50
2023-10-06T11:07:43.222Z,3.38
2023-10-06T11:10:15.539Z,4.28
2023-10-06T11:12:43.617Z,3.45
2023-10-06T11:15:17.353Z,3.75
2023-10-06T11:17:46.589Z,3.47
2023-10-06T11:20:17.332Z,3.55
2023-10-06T11:22:56.318Z,3.10
2023-10-06T11:25:28.504Z,3.80
2023-10-06T11:28:04.168Z,3.67
2023-10-06T11:30:34.122Z,3.63
2023-10-06T11:33:03.868Z,3.17
2023-10-06T11:35:35.397Z,3.60
2023-10-06T11:38:05.660Z,3.42
2023-10-06T11:40:36.069Z,2.72
2023-10-06T11:43:14.184Z,2.88
2023-10-06T11:45:43.965Z,3.33
2023-10-06T11:48:25.767Z,2.88
2023-10-06T11:51:02.838Z,3.40
2023-10-06T11:53:33.985Z,3.60
2023-10-06T11:56:09.260Z,2.97
2023-10-06T11:58:38.873Z,3.15
2023-10-06T12:01:07.573Z,3.03
2023-10-06T12:03:41.128Z,3.53
2023-10-06T12:06:13.337Z,3.00
2023-10-06T12:08:45.692Z,3.58
2023-10-06T12:11:14.440Z,2.95
2023-10-06T12:13:43.481Z,3.03
2023-10-06T12:16:15.863Z,3.03
2023-10-06T12:18:45.095Z,3.10
2023-10-06T12:21:16.214Z,4.03
2023-10-06T12:23:44.372Z,3.67
2023-10-06T12:26:12.863Z,2.92
2023-10-06T12:28:43.924Z,3.40
2023-10-06T12:31:12.709Z,3.33
2023-10-06T12:33:42.790Z,3.13
2023-10-06T12:36:13.667Z,3.00
2023-10-06T12:38:45.438Z,3.28
2023-10-06T12:41:13.838Z,3.33
2023-10-06T12:43:43.077Z,2.72
2023-10-06T12:46:11.476Z,3.35
2023-10-06T12:48:39.978Z,3.20
2023-10-06T12:51:12.517Z,2.97
2023-10-06T12:53:42.543Z,3.25
2023-10-06T12:56:11.250Z,2.92
2023-10-06T12:58:39.755Z,2.72
2023-10-06T13:01:09.649Z,3.08
2023-10-06T13:03:38.470Z,3.33
2023-10-06T13:06:08.185Z,3.30
2023-10-06T13:08:39.602Z,3.78
2023-10-06T13:11:11.494Z,3.30
2023-10-06T13:13:39.548Z,3.10
2023-10-06T13:16:09.774Z,3.60
2023-10-06T13:18:38.448Z,3.35
2023-10-06T13:21:11.878Z,3.65
2023-10-06T13:23:40.845Z,3.20
2023-10-06T13:26:23.637Z,2.92
2023-10-06T13:28:55.531Z,3.20
2023-10-06T13:31:23.564Z,3.67
2023-10-06T13:33:56.080Z,3.25
2023-10-06T13:36:24.005Z,3.22
2023-10-06T13:38:52.045Z,3.75
2023-10-06T13:41:21.455Z,3.28
2023-10-06T13:43:49.512Z,3.20
2023-10-06T13:46:18.474Z,3.50
2023-10-06T13:48:46.560Z,3.28
2023-10-06T13:51:15.571Z,3.40
2023-10-06T13:53:44.461Z,2.78
2023-10-06T13:56:12.622Z,3.00
2023-10-06T13:58:42.019Z,4.00
2023-10-06T14:01:10.948Z,3.85
2023-10-06T14:03:38.971Z,3.60
2023-10-06T14:06:08.430Z,3.35
2023-10-06T14:08:36.990Z,3.38
2023-10-06T14:11:04.998Z,3.13
2023-10-06T14:13:34.802Z,3.50
2023-10-06T14:16:10.820Z,3.15
2023-10-06T14:18:41.306Z,3.92
2023-10-06T14:21:11.366Z,3.10
2023-10-06T14:23:44.867Z,2.90
2023-10-06T14:26:13.284Z,3.50
2023-10-06T14:28:41.911Z,2.65
2023-10-06T14:31:18.218Z,3.28
2023-10-06T14:33:58.658Z,3.38
2023-10-06T14:36:27.519Z,2.90
2023-10-06T14:42:13.421Z,3.53
2023-10-06T14:44:58.593Z,3.40
2023-10-06T14:47:28.081Z,3.45
2023-10-06T14:49:56.728Z,3.70
2023-10-06T14:52:25.469Z,3.60
2023-10-06T14:54:55.067Z,3.47
2023-10-06T14:57:23.254Z,3.60
2023-10-06T14:59:56.600Z,3.65
2023-10-06T15:02:28.411Z,3.50
2023-10-06T15:04:56.696Z,3.28
2023-10-06T15:07:24.550Z,3.25
2023-10-06T15:09:52.645Z,3.65
2023-10-06T15:12:22.307Z,3.42
2023-10-06T15:14:50.525Z,3.50
2023-10-06T15:17:20.321Z,3.15
2023-10-06T15:19:50.028Z,3.80
2023-10-06T15:22:17.989Z,3.78
2023-10-06T15:24:45.940Z,3.63
2023-10-06T15:27:14.083Z,3.38
2023-10-06T15:29:46.311Z,3.67
2023-10-06T15:32:14.572Z,3.25
2023-10-06T15:34:42.595Z,3.90
2023-10-06T15:37:11.969Z,3.92
2023-10-06T15:39:40.142Z,3.38
2023-10-06T15:42:10.832Z,3.33
2023-10-06T15:44:38.965Z,3.65
2023-10-06T15:47:09.170Z,3.80
2023-10-06T15:49:38.659Z,3.40
2023-10-06T15:52:06.835Z,3.72
2023-10-06T15:54:36.221Z,3.53
2023-10-06T15:57:06.577Z,3.50
2023-10-06T15:59:39.123Z,3.10
2023-10-06T16:02:08.197Z,3.08
2023-10-06T16:04:36.980Z,3.17
2023-10-06T16:07:10.416Z,3.45
2023-10-06T16:09:41.053Z,3.83
2023-10-06T16:12:12.844Z,3.42
2023-10-06T16:14:40.891Z,3.97
2023-10-06T16:17:10.187Z,3.50
2023-10-06T16:19:44.392Z,3.30
2023-10-06T16:22:12.754Z,3.60
2023-10-06T16:24:42.512Z,3.42
2023-10-06T16:27:10.804Z,3.33
2023-10-06T16:29:38.775Z,3.38
2023-10-06T16:32:09.107Z,3.50
2023-10-06T16:34:38.643Z,3.47
2023-10-06T16:37:07.429Z,3.00
2023-10-06T16:39:37.319Z,3.58
2023-10-06T16:42:06.920Z,3.35
2023-10-06T16:44:38.799Z,3.22
2023-10-06T16:47:08.543Z,3.28
2023-10-06T16:49:37.034Z,3.53
2023-10-06T16:52:06.069Z,3.22
2023-10-06T16:54:35.208Z,3.20
2023-10-06T16:57:03.700Z,3.60
2023-10-06T16:59:38.195Z,3.08
2023-10-06T17:02:08.117Z,2.92
2023-10-06T17:04:42.298Z,3.30
2023-10-06T17:07:10.115Z,3.83
2023-10-06T17:09:37.987Z,3.10
2023-10-06T17:12:09.173Z,3.63
2023-10-06T17:14:41.512Z,3.30
2023-10-06T17:17:12.542Z,3.00
2023-10-06T17:19:42.049Z,3.15
2023-10-06T17:22:20.075Z,2.97
2023-10-06T17:24:57.394Z,3.60
2023-10-06T17:27:25.301Z,3.30
2023-10-06T17:29:57.121Z,3.60
2023-10-06T17:32:27.860Z,3.47
2023-10-06T17:34:55.821Z,3.15
2023-10-06T17:37:30.740Z,3.08
2023-10-06T17:39:59.664Z,3.78
2023-10-06T17:42:31.068Z,3.53
2023-10-06T17:45:03.506Z,3.30
2023-10-06T17:47:31.744Z,3.08
2023-10-06T17:50:00.792Z,3.60
2023-10-06T17:52:28.744Z,3.75
2023-10-06T17:54:56.863Z,3.58
2023-10-06T17:57:25.922Z,3.45
2023-10-06T17:59:53.942Z,3.78
2023-10-06T18:02:23.426Z,3.20
2023-10-06T18:04:52.234Z,2.78
2023-10-06T18:07:20.671Z,3.60
2023-10-06T18:09:49.074Z,2.90
2023-10-06T18:12:25.415Z,3.78
2023-10-06T18:14:53.913Z,3.35
2023-10-06T18:17:23.276Z,2.90
2023-10-06T18:19:52.310Z,3.70
2023-10-06T18:22:21.997Z,3.78
2023-10-06T18:24:52.534Z,3.28
2023-10-06T18:27:20.932Z,3.30
2023-10-06T18:29:48.903Z,3.08
2023-10-06T18:32:18.283Z,3.85
2023-10-06T18:34:47.948Z,3.05
2023-10-06T18:37:15.931Z,3.25
2023-10-06T18:39:47.303Z,4.32
2023-10-06T18:42:17.579Z,3.10
2023-10-06T18:44:45.541Z,3.55
2023-10-06T18:47:13.404Z,4.05
2023-10-06T18:49:41.781Z,3.60
2023-10-06T18:52:12.303Z,3.58
2023-10-06T18:54:40.726Z,3.50
2023-10-06T18:57:09.279Z,3.85
2023-10-06T18:59:38.745Z,4.15
2023-10-06T19:02:06.988Z,3.13
2023-10-06T19:04:36.103Z,2.97
2023-10-06T19:07:04.100Z,3.53
2023-10-06T19:09:35.537Z,3.40
2023-10-06T19:12:05.163Z,3.42
2023-10-06T19:14:33.323Z,3.08
2023-10-06T19:17:04.199Z,3.40
2023-10-06T19:19:32.386Z,3.42
2023-10-06T19:22:01.062Z,3.17
2023-10-06T19:24:29.338Z,3.65
2023-10-06T19:26:58.640Z,3.10
2023-10-06T19:29:28.111Z,3.40
2023-10-06T19:31:56.894Z,3.55
2023-10-06T19:34:27.099Z,3.45
2023-10-06T19:36:55.124Z,3.35
2023-10-06T19:39:25.754Z,3.40
2023-10-06T19:41:54.679Z,3.40
2023-10-06T19:44:24.741Z,3.58
2023-10-06T19:46:53.457Z,3.45
2023-10-06T19:49:24.798Z,3.15
2023-10-06T19:51:54.848Z,3.47
2023-10-06T19:54:22.760Z,3.47
2023-10-06T19:56:51.475Z,3.78
2023-10-06T19:59:19.609Z,3.60
2023-10-06T20:01:48.886Z,3.45
2023-10-06T20:04:17.619Z,3.75
2023-10-06T20:06:45.544Z,3.22
2023-10-06T20:09:18.414Z,3.80
2023-10-06T20:11:46.770Z,3.67
2023-10-06T20:14:15.067Z,3.78
2023-10-06T20:16:45.533Z,4.20
2023-10-06T20:19:17.296Z,3.55
2023-10-06T20:21:45.687Z,3.53
2023-10-06T20:24:13.798Z,4.15
2023-10-06T20:26:42.397Z,3.78
2023-10-06T20:29:11.813Z,3.60
2023-10-06T20:31:40.948Z,3.85
2023-10-06T20:34:09.655Z,3.55
2023-10-06T20:36:40.869Z,4.13
2023-10-06T20:39:10.669Z,4.00
2023-10-06T20:41:40.454Z,3.42
2023-10-06T20:44:11.790Z,3.70
2023-10-06T20:46:41.454Z,3.45
2023-10-06T20:49:09.665Z,3.35
2023-10-06T20:51:40.042Z,3.70
2023-10-06T20:54:08.821Z,3.67
2023-10-06T20:56:38.871Z,4.03
2023-10-06T20:59:08.714Z,3.38
2023-10-06T21:01:36.749Z,3.15
2023-10-06T21:04:06.198Z,3.33
2023-10-06T21:06:35.772Z,3.75
2023-10-06T21:09:06.721Z,3.90
2023-10-06T21:11:38.505Z,3.13
2023-10-06T21:14:06.752Z,3.67
2023-10-06T21:16:34.692Z,3.85
2023-10-06T21:19:03.527Z,3.80
2023-10-06T21:21:31.456Z,4.38
2023-10-06T21:24:01.174Z,4.15
2023-10-06T21:26:30.728Z,4.25
2023-10-06T21:28:58.654Z,3.63
2023-10-06T21:31:27.213Z,3.67
2023-10-06T21:33:55.218Z,3.22
2023-10-06T21:36:24.115Z,4.18
2023-10-06T21:38:52.000Z,3.90
2023-10-06T21:41:20.089Z,4.00
2023-10-06T21:43:49.460Z,4.00
2023-10-06T21:46:17.443Z,3.33
2023-10-06T21:48:46.379Z,3.60
2023-10-06T21:51:14.203Z,4.18
2023-10-06T21:53:42.113Z,3.67
2023-10-06T21:56:11.280Z,4.43
2023-10-06T21:58:39.242Z,3.47
2023-10-06T22:01:14.901Z,3.40
2023-10-06T22:03:43.258Z,3.30
2023-10-06T22:06:12.445Z,3.75
2023-10-06T22:08:40.778Z,3.70
2023-10-06T22:11:08.800Z,3.85
2023-10-06T22:13:36.625Z,3.83
2023-10-06T22:16:06.354Z,3.72
2023-10-06T22:18:36.031Z,3.30
2023-10-06T22:21:04.330Z,3.15
2023-10-06T22:23:32.896Z,3.67
2023-10-06T22:26:01.199Z,3.53
2023-10-06T22:28:29.932Z,3.60
2023-10-06T22:31:03.535Z,3.40
2023-10-06T22:33:32.073Z,3.35
2023-10-06T22:36:02.269Z,3.05
2023-10-06T22:38:31.078Z,3.13
2023-10-06T22:40:58.939Z,2.88
2023-10-06T22:43:26.917Z,3.42
2023-10-06T22:45:55.275Z,3.53
2023-10-06T22:48:23.153Z,2.72
2023-10-06T22:50:51.053Z,3.08
2023-10-06T22:53:23.454Z,3.22
2023-10-06T22:55:53.809Z,3.25
2023-10-06T22:58:21.922Z,3.47
2023-10-06T23:00:50.196Z,3.53
2023-10-06T23:03:18.173Z,3.55
2023-10-06T23:05:46.289Z,3.17
2023-10-06T23:08:14.191Z,3.95
2023-10-06T23:10:43.484Z,3.70
2023-10-06T23:13:11.403Z,3.25
2023-10-06T23:15:40.769Z,3.20
2023-10-06T23:18:12.162Z,3.63
2023-10-06T23:20:43.158Z,3.83
2023-10-06T23:23:12.457Z,3.10
2023-10-06T23:25:48.105Z,3.53
2023-10-06T23:28:19.837Z,3.60
2023-10-06T23:30:55.658Z,3.30
2023-10-06T23:33:23.551Z,4.00
2023-10-06T23:35:51.420Z,3.72
2023-10-06T23:38:19.435Z,3.38
2023-10-06T23:40:48.975Z,3.58
2023-10-06T23:43:18.218Z,3.28
2023-10-06T23:45:47.258Z,3.47
2023-10-06T23:48:16.945Z,3.63
2023-10-06T23:50:53.824Z,3.60
2023-10-06T23:53:28.250Z,3.83
2023-10-06T23:56:02.086Z,3.53
2023-10-06T23:58:34.379Z,3.65
